Captain W. D. Haden — WCQ5440 — position and weather

sailwx.info

Track history (hours):
 
Tides and Currents Weather Stations Pressure Air Temp Water Temp Dewpoint Dewpoint Depression Visibility Wind Speed Wind Dir Waves Ship Positions

Captain W. D. Haden

Owner: G & H Towing Company, GALVESTON, TX. More information available from US FCC via Universal Licensing System and Coast Guard Vessel Documentation Center.

Last reported at 2018-Feb-25 21:46 UTC. Time now 2018-Feb-25 23:52 UTC.
Position N 29°23' W 094°53'.

Length 30 m; draft 6 m.

Type: Tug. MMSI: 366921540.

Date/timePositionNaut miles runAvg speedWind from/ knotsBaromVisibWave heightAir tempDewpointWater temp
2018-Feb-25 21:46N 29°23' W 094°53'0 0.0
2018-Feb-24 11:49N 29°23' W 094°53'1 0.0
2018-Feb-23 04:42N 29°23' W 094°54'1 0.0
2018-Feb-21 02:46N 29°22' W 094°53'0 0.1
2018-Feb-20 23:15N 29°22' W 094°53'0 0.0
2018-Feb-20 22:59N 29°22' W 094°53'1 1.2
2018-Feb-20 22:23N 29°23' W 094°53'1 0.0
2018-Feb-20 07:23N 29°23' W 094°54'0 0.0
2018-Feb-19 20:32N 29°23' W 094°54'0 0.0
2018-Feb-19 20:27N 29°23' W 094°54'0 0.0
2018-Feb-19 19:57N 29°23' W 094°54'1 0.3
2018-Feb-19 17:25N 29°22' W 094°54'0 1.0
2018-Feb-19 16:59N 29°22' W 094°53'2 1.8
2018-Feb-19 16:08N 29°23' W 094°52'2 7.1
2018-Feb-19 15:53N 29°23' W 094°53'0 0.1
2018-Feb-19 13:23N 29°23' W 094°53'0 0.7
2018-Feb-19 13:00N 29°23' W 094°54'0 0.0
2018-Feb-19 11:17N 29°23' W 094°54'0 0.0
2018-Feb-19 10:56N 29°23' W 094°54'0 0.0
2018-Feb-19 09:41N 29°23' W 094°54'0 0.0
2018-Feb-19 09:17N 29°23' W 094°54'0 0.0
2018-Feb-19 08:56N 29°23' W 094°54'0 0.0
2018-Feb-19 08:20N 29°23' W 094°54'0 0.0
2018-Feb-19 07:53N 29°23' W 094°54'0 0.0
2018-Feb-19 06:05N 29°23' W 094°54'0 0.0
2018-Feb-19 05:59N 29°23' W 094°54'0 0.0
2018-Feb-19 05:23N 29°23' W 094°54'0 0.0
2018-Feb-18 23:34N 29°23' W 094°54'0 0.0
2018-Feb-18 20:12N 29°23' W 094°54'1 0.5
2018-Feb-18 19:13N 29°22' W 094°53'0 0.0
2018-Feb-18 18:54N 29°22' W 094°53'1 0.0
2018-Feb-17 00:41N 29°23' W 094°54'0 0.1
2018-Feb-17 00:20N 29°23' W 094°54'0 1.1
2018-Feb-17 00:00N 29°23' W 094°53'4 5.4
2018-Feb-16 23:19N 29°22' W 094°49'3 0.2
2018-Feb-16 08:29N 29°19' W 094°47'0 0.0
2018-Feb-16 07:59N 29°19' W 094°47'0 0.0
2018-Feb-16 05:55N 29°19' W 094°47'1 0.4
2018-Feb-16 04:11N 29°19' W 094°48'1 3.4
2018-Feb-16 03:58N 29°19' W 094°48'0 0.1
2018-Feb-16 03:12N 29°19' W 094°49'0 0.1
2018-Feb-16 02:54N 29°19' W 094°48'1 0.4
2018-Feb-15 23:11N 29°19' W 094°47'1 7.9
2018-Feb-15 23:00N 29°21' W 094°46'6 5.4
2018-Feb-15 21:52N 29°22' W 094°53'  
Track history (hours):
 
Tides and Currents Weather Stations Pressure Air Temp Water Temp Dewpoint Dewpoint Depression Visibility Wind Speed Wind Dir Waves Ship Positions

Captain W. D. Haden

Owner: G & H Towing Company, GALVESTON, TX. More information available from US FCC via Universal Licensing System and Coast Guard Vessel Documentation Center.

Last reported at 2018-Feb-25 21:46 UTC. Time now 2018-Feb-25 23:52 UTC.
Position N 29°23' W 094°53'.

Length 30 m; draft 6 m.

Type: Tug. MMSI: 366921540.

Date/timePositionNaut miles runAvg speedWind from/ knotsBaromVisibWave heightAir tempDewpointWater temp
2018-Feb-25 21:46N 29°23' W 094°53'0 0.0
2018-Feb-24 11:49N 29°23' W 094°53'1 0.0
2018-Feb-23 04:42N 29°23' W 094°54'1 0.0
2018-Feb-21 02:46N 29°22' W 094°53'0 0.1
2018-Feb-20 23:15N 29°22' W 094°53'0 0.0
2018-Feb-20 22:59N 29°22' W 094°53'1 1.2
2018-Feb-20 22:23N 29°23' W 094°53'1 0.0
2018-Feb-20 07:23N 29°23' W 094°54'0 0.0
2018-Feb-19 20:32N 29°23' W 094°54'0 0.0
2018-Feb-19 20:27N 29°23' W 094°54'0 0.0
2018-Feb-19 19:57N 29°23' W 094°54'1 0.3
2018-Feb-19 17:25N 29°22' W 094°54'0 1.0
2018-Feb-19 16:59N 29°22' W 094°53'2 1.8
2018-Feb-19 16:08N 29°23' W 094°52'2 7.1
2018-Feb-19 15:53N 29°23' W 094°53'0 0.1
2018-Feb-19 13:23N 29°23' W 094°53'0 0.7
2018-Feb-19 13:00N 29°23' W 094°54'0 0.0
2018-Feb-19 11:17N 29°23' W 094°54'0 0.0
2018-Feb-19 10:56N 29°23' W 094°54'0 0.0
2018-Feb-19 09:41N 29°23' W 094°54'0 0.0
2018-Feb-19 09:17N 29°23' W 094°54'0 0.0
2018-Feb-19 08:56N 29°23' W 094°54'0 0.0
2018-Feb-19 08:20N 29°23' W 094°54'0 0.0
2018-Feb-19 07:53N 29°23' W 094°54'0 0.0
2018-Feb-19 06:05N 29°23' W 094°54'0 0.0
2018-Feb-19 05:59N 29°23' W 094°54'0 0.0
2018-Feb-19 05:23N 29°23' W 094°54'0 0.0
2018-Feb-18 23:34N 29°23' W 094°54'0 0.0
2018-Feb-18 20:12N 29°23' W 094°54'1 0.5
2018-Feb-18 19:13N 29°22' W 094°53'0 0.0
2018-Feb-18 18:54N 29°22' W 094°53'1 0.0
2018-Feb-17 00:41N 29°23' W 094°54'0 0.1
2018-Feb-17 00:20N 29°23' W 094°54'0 1.1
2018-Feb-17 00:00N 29°23' W 094°53'4 5.4
2018-Feb-16 23:19N 29°22' W 094°49'3 0.2
2018-Feb-16 08:29N 29°19' W 094°47'0 0.0
2018-Feb-16 07:59N 29°19' W 094°47'0 0.0
2018-Feb-16 05:55N 29°19' W 094°47'1 0.4
2018-Feb-16 04:11N 29°19' W 094°48'1 3.4
2018-Feb-16 03:58N 29°19' W 094°48'0 0.1
2018-Feb-16 03:12N 29°19' W 094°49'0 0.1
2018-Feb-16 02:54N 29°19' W 094°48'1 0.4
2018-Feb-15 23:11N 29°19' W 094°47'1 7.9
2018-Feb-15 23:00N 29°21' W 094°46'6 5.4
2018-Feb-15 21:52N 29°22' W 094°53'  

Dump ship's entire track history